Terminal Aerodrome Forecast
Issued by NWS

Home | Current Version | Previous Version | Text Only | Print | Product List | Glossary On
Versions: 1 2 3 4 5 6 7 8 9 10 11
674
FTUS41 KBTV 221737
TAFMSS
TAF
KMSS 221737Z 2218/2318 06007KT P6SM BKN120
     FM230000 00000KT P6SM BKN025
     FM230300 VRB03KT 4SM BR VCSH OVC025
     FM230600 VRB03KT 2SM BR VCSH OVC015
     FM231100 20011KT 6SM BR VCSH OVC025
     FM231300 19016G26KT P6SM VCSH BKN025
     FM231500 23012KT P6SM VCSH BKN025=

USA.gov is the U.S. government's official web portal to all federal, state and local government web resources and services.